Time;durP1;ratioP1;P1;durP2;ratioP2;P2;SDS_P1;SDS_P2;PMS_P1;PMS_P2;Temp;Humidity;BMP_temperature;BMP_pressure;BME280_temperature;BME280_humidity;BME280_pressure;Samples;Min_cycle;Max_cycle;Signal;HPM_P1;HPM_P2
2022/09/14 00:01:44;;;;;;;16.57;9.13;;;23.90;99.90;;;;;;5008977;28;20203;-88
2022/09/14 00:04:18;;;;;;;13.20;8.93;;;23.40;99.90;;;;;;5009034;28;20234;-94
2022/09/14 00:06:50;;;;;;;16.10;8.47;;;23.10;99.90;;;;;;5007989;28;20293;-94
2022/09/14 00:09:24;;;;;;;16.53;8.67;;;23.00;99.90;;;;;;5007837;28;20199;-94
2022/09/14 00:11:56;;;;;;;16.00;9.17;;;22.80;99.90;;;;;;5002089;28;20216;-95
2022/09/14 00:14:27;;;;;;;17.40;9.63;;;22.70;99.90;;;;;;5004700;28;20221;-94
2022/09/14 00:17:00;;;;;;;15.67;8.73;;;22.40;99.90;;;;;;5006190;28;20216;-94
2022/09/14 00:19:32;;;;;;;15.20;9.03;;;22.30;99.90;;;;;;5010664;28;20199;-95
2022/09/14 00:22:05;;;;;;;17.17;9.60;;;22.30;99.90;;;;;;4997258;28;20209;-94
2022/09/14 00:24:37;;;;;;;16.83;9.37;;;22.00;99.90;;;;;;4973076;28;20243;-94
2022/09/14 00:27:09;;;;;;;15.97;9.67;;;21.80;99.90;;;;;;4970698;28;20258;-94
2022/09/14 00:29:41;;;;;;;15.17;8.97;;;21.70;99.90;;;;;;4968873;29;20267;-94
2022/09/14 00:32:14;;;;;;;19.13;8.80;;;21.70;99.90;;;;;;4967194;28;20658;-93
2022/09/14 00:34:46;;;;;;;16.60;9.23;;;21.60;99.90;;;;;;4966890;29;20246;-95
2022/09/14 00:37:18;;;;;;;17.73;9.47;;;21.60;99.90;;;;;;4968992;28;20214;-92
2022/09/14 00:39:49;;;;;;;17.27;9.07;;;21.50;99.90;;;;;;4966981;29;20250;-94
2022/09/14 00:42:20;;;;;;;14.33;9.10;;;21.40;99.90;;;;;;4967997;28;20211;-94
2022/09/14 00:45:04;;;;;;;16.87;9.03;;;21.40;99.90;;;;;;4964853;28;20243;-94
2022/09/14 00:47:41;;;;;;;20.33;9.27;;;21.30;99.90;;;;;;4966400;29;20223;-94
2022/09/14 00:50:13;;;;;;;12.90;9.00;;;21.30;99.90;;;;;;4970599;29;20203;-94
2022/09/14 00:52:48;;;;;;;16.20;9.20;;;21.20;99.90;;;;;;4969091;28;20631;-95
2022/09/14 00:55:27;;;;;;;16.70;9.03;;;21.20;99.90;;;;;;4973693;29;20222;-94
2022/09/14 00:58:00;;;;;;;18.23;9.57;;;21.10;99.90;;;;;;4970598;29;20211;-94
2022/09/14 01:00:35;;;;;;;16.30;9.27;;;21.10;99.90;;;;;;4972296;28;20670;-94
2022/09/14 01:11:35;;;;;;;15.40;9.30;;;20.90;99.90;;;;;;5043678;28;20292;-93
2022/09/14 01:14:15;;;;;;;15.03;9.30;;;20.80;99.90;;;;;;5041321;28;20216;-93
2022/09/14 01:16:54;;;;;;;15.80;9.30;;;20.80;99.90;;;;;;5040649;28;20331;-93
2022/09/14 01:19:34;;;;;;;17.87;9.40;;;20.80;99.90;;;;;;5034411;28;20233;-94
2022/09/14 01:22:11;;;;;;;17.13;9.47;;;20.80;99.90;;;;;;5025004;28;20236;-93
2022/09/14 01:24:49;;;;;;;14.80;9.33;;;20.60;99.90;;;;;;5024128;28;20229;-94
2022/09/14 01:27:39;;;;;;;17.60;10.23;;;20.70;99.90;;;;;;5024945;28;20202;-93
2022/09/14 01:30:16;;;;;;;15.20;9.53;;;20.60;99.90;;;;;;5023968;28;20206;-94
2022/09/14 01:32:55;;;;;;;13.83;9.50;;;20.50;99.90;;;;;;5023774;28;20210;-93
2022/09/14 01:35:32;;;;;;;13.27;9.73;;;20.50;99.90;;;;;;5023303;28;20209;-93
2022/09/14 01:38:10;;;;;;;14.03;10.17;;;20.40;99.90;;;;;;5024363;28;20209;-93
2022/09/14 01:40:47;;;;;;;15.23;10.17;;;20.40;99.90;;;;;;5023774;28;20205;-93
2022/09/14 01:43:40;;;;;;;13.53;9.33;;;20.30;99.90;;;;;;5023450;28;20211;-94
2022/09/14 01:46:17;;;;;;;14.37;10.30;;;20.30;99.90;;;;;;5025074;28;20229;-91
2022/09/14 01:48:53;;;;;;;11.17;9.33;;;20.20;99.90;;;;;;5021793;28;20208;-94
2022/09/14 01:51:29;;;;;;;12.63;10.13;;;20.10;99.90;;;;;;5020398;28;20217;-94
2022/09/14 01:54:11;;;;;;;18.07;10.77;;;20.10;99.90;;;;;;5008569;28;20216;-94
2022/09/14 01:56:50;;;;;;;17.73;10.90;;;20.00;99.90;;;;;;5003114;28;20229;-93
2022/09/14 01:59:28;;;;;;;17.07;10.67;;;20.00;99.90;;;;;;5007973;28;20214;-93
2022/09/14 02:02:06;;;;;;;16.90;10.93;;;19.90;99.90;;;;;;5005163;28;20214;-93
2022/09/14 02:04:44;;;;;;;16.77;11.33;;;19.80;99.90;;;;;;5004242;28;20236;-94
2022/09/14 02:07:15;;;;;;;14.17;9.80;;;19.80;99.90;;;;;;5005773;28;20222;-93
2022/09/14 02:09:48;;;;;;;17.50;10.90;;;19.80;99.90;;;;;;5026433;28;20214;-93
2022/09/14 02:12:21;;;;;;;14.93;11.27;;;19.80;99.90;;;;;;5029670;28;20229;-94
2022/09/14 02:14:56;;;;;;;16.17;10.40;;;19.70;99.90;;;;;;5088673;23;20238;-93
2022/09/14 02:17:31;;;;;;;17.07;11.67;;;19.70;99.90;;;;;;4989719;28;20233;-93
2022/09/14 02:20:07;;;;;;;15.67;11.13;;;19.70;99.90;;;;;;4987169;28;20234;-93
2022/09/14 02:22:53;;;;;;;18.43;11.87;;;19.60;99.90;;;;;;4993203;28;20365;-93
2022/09/14 02:25:25;;;;;;;16.70;11.50;;;19.60;99.90;;;;;;5002839;28;20250;-93
2022/09/14 02:27:56;;;;;;;16.97;12.00;;;19.50;99.90;;;;;;4979783;28;20225;-93
2022/09/14 02:30:32;;;;;;;17.30;11.67;;;19.50;99.90;;;;;;4980707;28;20207;-92
2022/09/14 02:33:17;;;;;;;19.37;11.33;;;19.50;99.90;;;;;;4982285;28;20289;-92
2022/09/14 02:35:54;;;;;;;15.37;11.60;;;19.40;99.90;;;;;;4982651;28;20215;-93
2022/09/14 02:38:35;;;;;;;15.60;10.87;;;19.40;99.90;;;;;;4981449;28;20213;-93
2022/09/14 02:41:13;;;;;;;15.90;11.20;;;19.40;99.90;;;;;;4983520;28;20263;-94
2022/09/14 02:46:43;;;;;;;17.17;11.23;;;19.30;99.90;;;;;;5022435;23;20338;-93
2022/09/14 02:49:27;;;;;;;17.37;11.53;;;19.30;99.90;;;;;;4985289;28;20223;-93
2022/09/14 02:52:11;;;;;;;15.67;12.07;;;19.20;99.90;;;;;;4986775;28;20202;-93
2022/09/14 02:54:49;;;;;;;18.87;12.50;;;19.20;99.90;;;;;;4991571;28;20214;-94
2022/09/14 02:57:22;;;;;;;16.70;11.43;;;19.20;99.90;;;;;;4989036;28;20214;-94
2022/09/14 02:59:56;;;;;;;18.20;12.53;;;19.20;99.90;;;;;;4987827;28;20219;-93
2022/09/14 03:02:31;;;;;;;16.23;11.73;;;19.10;99.90;;;;;;4988590;28;20388;-93
2022/09/14 03:05:05;;;;;;;17.77;12.50;;;19.00;99.90;;;;;;4982410;28;20242;-93
2022/09/14 03:07:39;;;;;;;15.07;12.03;;;19.00;99.90;;;;;;4986281;28;20210;-92
2022/09/14 03:10:13;;;;;;;16.80;12.00;;;18.90;99.90;;;;;;4984464;28;20208;-92
2022/09/14 03:12:49;;;;;;;19.87;12.50;;;18.90;99.90;;;;;;4988550;28;20238;-94
2022/09/14 03:15:23;;;;;;;15.27;11.97;;;18.80;99.90;;;;;;4989637;28;20276;-92
2022/09/14 03:18:00;;;;;;;17.47;12.90;;;18.70;99.90;;;;;;4992120;28;20210;-93
2022/09/14 03:20:35;;;;;;;16.77;13.00;;;18.60;99.90;;;;;;4997908;28;20242;-92
2022/09/14 03:23:09;;;;;;;20.97;14.30;;;18.60;99.90;;;;;;4997036;28;20206;-92
2022/09/14 03:25:44;;;;;;;18.63;13.53;;;18.60;99.90;;;;;;4996008;28;20226;-92
2022/09/14 03:28:15;;;;;;;19.90;14.13;;;18.60;99.90;;;;;;4995499;28;20211;-93
2022/09/14 03:30:47;;;;;;;20.13;13.40;;;18.50;99.90;;;;;;4992239;28;20215;-93
2022/09/14 03:33:20;;;;;;;18.57;15.00;;;18.50;99.90;;;;;;4987362;28;20265;-93
2022/09/14 03:35:52;;;;;;;17.87;13.93;;;18.50;99.90;;;;;;4991983;28;20286;-92
2022/09/14 03:38:28;;;;;;;19.90;14.33;;;18.50;99.90;;;;;;4992613;28;20211;-93
2022/09/14 03:41:00;;;;;;;21.67;14.07;;;18.50;99.90;;;;;;4991978;28;20218;-91
2022/09/14 03:43:36;;;;;;;19.13;14.67;;;18.50;99.90;;;;;;4992353;28;20207;-92
2022/09/14 03:46:09;;;;;;;22.17;14.30;;;18.50;99.90;;;;;;4988628;28;20238;-90
2022/09/14 03:48:43;;;;;;;20.10;14.53;;;18.40;99.90;;;;;;4984182;28;20890;-92
2022/09/14 03:51:16;;;;;;;17.80;13.77;;;18.40;99.90;;;;;;4980416;28;20655;-93
2022/09/14 03:53:47;;;;;;;18.97;13.70;;;18.40;99.90;;;;;;4977015;28;20652;-93
2022/09/14 03:56:22;;;;;;;16.90;13.67;;;18.40;99.90;;;;;;4977776;28;20279;-92
2022/09/14 03:58:53;;;;;;;19.73;15.10;;;18.30;99.90;;;;;;4981034;28;20218;-92
2022/09/14 04:01:27;;;;;;;20.30;14.13;;;18.40;99.90;;;;;;4979716;28;20215;-93
2022/09/14 04:04:01;;;;;;;20.93;14.57;;;18.30;99.90;;;;;;4980459;28;20219;-92
2022/09/14 04:06:33;;;;;;;19.73;14.87;;;18.30;99.90;;;;;;4979307;28;20278;-93
2022/09/14 04:09:05;;;;;;;21.23;15.27;;;18.40;99.90;;;;;;4958552;28;20211;-94
2022/09/14 04:11:36;;;;;;;19.37;14.93;;;18.40;99.90;;;;;;4961624;29;20271;-94
2022/09/14 04:14:07;;;;;;;20.20;14.87;;;18.40;99.90;;;;;;4964857;29;20207;-93
2022/09/14 04:16:40;;;;;;;20.10;14.57;;;18.30;99.90;;;;;;4963246;28;20292;-92
2022/09/14 04:19:14;;;;;;;20.13;14.60;;;18.30;99.90;;;;;;4959985;28;20272;-92
2022/09/14 04:21:47;;;;;;;18.23;14.60;;;18.30;99.90;;;;;;4958198;28;20266;-93
2022/09/14 04:24:18;;;;;;;16.30;14.23;;;18.30;99.90;;;;;;4977144;28;20211;-93
2022/09/14 04:26:50;;;;;;;20.73;15.57;;;18.30;99.90;;;;;;4977614;28;20230;-93
2022/09/14 04:29:22;;;;;;;18.00;14.33;;;18.30;99.90;;;;;;4981434;28;20203;-92
2022/09/14 04:31:53;;;;;;;22.03;15.10;;;18.30;99.90;;;;;;4980211;28;20480;-92
2022/09/14 04:34:27;;;;;;;18.17;15.40;;;18.30;99.90;;;;;;4980860;28;20217;-91
2022/09/14 04:36:58;;;;;;;20.20;16.17;;;18.30;99.90;;;;;;4981169;28;20571;-91
2022/09/14 04:39:31;;;;;;;20.73;14.97;;;18.30;99.90;;;;;;4980178;28;20226;-92
2022/09/14 04:42:03;;;;;;;19.60;15.03;;;18.30;99.90;;;;;;4980535;28;20213;-92
2022/09/14 04:44:34;;;;;;;21.37;14.73;;;18.30;99.90;;;;;;4980999;28;20215;-92
2022/09/14 04:47:06;;;;;;;21.63;14.50;;;18.30;99.90;;;;;;4980368;28;20243;-92
2022/09/14 04:49:40;;;;;;;19.93;15.10;;;18.30;99.90;;;;;;4979979;28;20293;-92
2022/09/14 04:52:11;;;;;;;19.57;14.50;;;18.30;99.90;;;;;;4979778;28;20214;-92
2022/09/14 04:54:42;;;;;;;21.40;14.50;;;18.30;99.90;;;;;;4963440;28;20211;-92
2022/09/14 04:57:13;;;;;;;21.03;14.67;;;18.30;99.90;;;;;;4962134;28;20212;-93
2022/09/14 04:59:45;;;;;;;19.70;13.90;;;18.30;99.90;;;;;;4961601;28;20556;-92
2022/09/14 05:02:16;;;;;;;22.50;14.63;;;18.20;99.90;;;;;;4959285;29;20222;-92
2022/09/14 05:04:52;;;;;;;20.17;14.53;;;18.20;99.90;;;;;;4962766;28;20215;-92
2022/09/14 05:07:24;;;;;;;21.93;15.30;;;18.20;99.90;;;;;;4961317;28;20243;-92
2022/09/14 05:09:55;;;;;;;19.50;14.87;;;18.20;99.90;;;;;;4967180;28;20218;-92
2022/09/14 05:12:27;;;;;;;18.60;13.77;;;18.20;99.90;;;;;;4961085;28;20656;-92
2022/09/14 05:14:58;;;;;;;17.47;13.63;;;18.10;99.90;;;;;;4962332;28;20222;-92
2022/09/14 05:17:30;;;;;;;17.90;14.67;;;18.00;99.90;;;;;;4964052;28;20231;-92
2022/09/14 05:20:05;;;;;;;28.10;14.40;;;18.00;99.90;;;;;;4961424;28;20589;-92
2022/09/14 05:22:37;;;;;;;18.83;14.43;;;17.90;99.90;;;;;;4961261;28;20210;-92
2022/09/14 05:25:09;;;;;;;21.00;14.23;;;17.90;99.90;;;;;;4967869;28;20216;-91
2022/09/14 05:27:40;;;;;;;16.57;13.60;;;17.80;99.90;;;;;;4960720;28;20239;-92
2022/09/14 05:30:13;;;;;;;20.00;13.67;;;17.80;99.90;;;;;;4978306;28;20207;-92
2022/09/14 05:32:44;;;;;;;21.53;13.80;;;17.80;99.90;;;;;;4979604;28;20678;-92
2022/09/14 05:35:19;;;;;;;22.63;13.90;;;17.80;99.90;;;;;;4983336;28;20678;-92
2022/09/14 05:37:50;;;;;;;19.30;14.47;;;17.80;99.90;;;;;;4968371;28;20212;-92
2022/09/14 05:40:22;;;;;;;19.47;14.27;;;17.80;99.90;;;;;;4980962;28;20245;-92
2022/09/14 05:42:54;;;;;;;21.93;14.57;;;17.70;99.90;;;;;;4979583;28;20215;-92
2022/09/14 05:45:25;;;;;;;21.07;14.47;;;17.70;99.90;;;;;;4980318;28;20231;-92
2022/09/14 05:48:01;;;;;;;22.00;14.60;;;17.60;99.90;;;;;;4981916;28;20309;-92
2022/09/14 05:50:37;;;;;;;21.80;14.47;;;17.50;99.90;;;;;;4980009;28;20214;-91
2022/09/14 05:53:08;;;;;;;20.77;14.10;;;17.50;99.90;;;;;;4978875;28;20719;-92
2022/09/14 05:55:40;;;;;;;21.47;14.33;;;17.50;99.90;;;;;;4979804;28;20740;-92
2022/09/14 05:58:12;;;;;;;22.10;15.53;;;17.50;99.90;;;;;;4979562;28;20217;-92
2022/09/14 06:00:45;;;;;;;19.20;14.40;;;17.40;99.90;;;;;;4981600;28;20211;-92
2022/09/14 06:03:18;;;;;;;19.97;14.53;;;17.40;99.90;;;;;;4981317;28;20235;-92
2022/09/14 06:05:53;;;;;;;20.23;13.53;;;17.30;99.90;;;;;;4979583;28;20229;-92
2022/09/14 06:08:25;;;;;;;20.60;13.73;;;17.30;99.90;;;;;;4979561;28;20230;-92
2022/09/14 06:10:57;;;;;;;20.57;13.47;;;17.30;99.90;;;;;;4979485;28;20219;-92
2022/09/14 06:13:29;;;;;;;20.70;12.87;;;17.30;99.90;;;;;;4978751;28;20211;-91
2022/09/14 06:16:04;;;;;;;16.40;12.13;;;17.20;99.90;;;;;;4978170;28;20568;-92
2022/09/14 06:18:37;;;;;;;19.17;12.50;;;17.20;99.90;;;;;;4979555;28;20245;-92
2022/09/14 06:21:14;;;;;;;17.40;12.20;;;17.20;99.90;;;;;;4978727;28;20310;-92
2022/09/14 06:23:48;;;;;;;17.03;12.43;;;17.20;99.90;;;;;;4978787;28;20211;-92
2022/09/14 06:26:19;;;;;;;16.60;12.07;;;17.20;99.90;;;;;;4981701;28;20229;-92
2022/09/14 06:28:51;;;;;;;19.03;11.77;;;17.10;99.90;;;;;;4980390;28;20686;-92
2022/09/14 06:31:24;;;;;;;16.37;11.47;;;17.10;99.90;;;;;;4979220;28;20215;-92
2022/09/14 06:33:55;;;;;;;18.30;11.70;;;17.10;99.90;;;;;;4978213;28;20213;-92
2022/09/14 06:36:29;;;;;;;20.23;11.63;;;17.00;99.90;;;;;;4979347;28;20210;-92
2022/09/14 06:39:02;;;;;;;18.47;12.33;;;17.00;99.90;;;;;;4978956;28;20208;-92
2022/09/14 06:41:33;;;;;;;17.10;12.00;;;17.00;99.90;;;;;;4977035;28;20226;-92
2022/09/14 06:44:05;;;;;;;17.17;11.53;;;17.00;99.90;;;;;;4978420;28;20210;-92
2022/09/14 06:46:37;;;;;;;18.80;11.40;;;17.00;99.90;;;;;;4985985;28;20229;-91
2022/09/14 06:49:19;;;;;;;19.27;11.47;;;16.90;99.90;;;;;;4983152;28;20199;-92
2022/09/14 06:51:56;;;;;;;15.47;10.57;;;16.90;99.90;;;;;;4982274;28;20241;-92
2022/09/14 06:54:28;;;;;;;13.07;9.50;;;16.90;99.90;;;;;;4963691;28;20258;-92
2022/09/14 06:56:59;;;;;;;18.90;10.43;;;16.80;99.90;;;;;;4959356;28;20200;-92
2022/09/14 06:59:30;;;;;;;17.27;10.10;;;16.70;99.90;;;;;;4958940;28;20211;-92
2022/09/14 07:02:02;;;;;;;17.03;10.00;;;16.70;99.90;;;;;;4958943;28;20225;-92
2022/09/14 07:04:34;;;;;;;14.77;9.47;;;16.60;99.90;;;;;;4959174;28;20214;-92
2022/09/14 07:07:07;;;;;;;16.93;9.73;;;16.50;99.90;;;;;;4959318;28;20726;-92
2022/09/14 07:09:38;;;;;;;16.13;10.03;;;16.50;99.90;;;;;;4976493;28;20213;-92
2022/09/14 07:12:10;;;;;;;15.17;9.07;;;16.30;99.90;;;;;;4978122;28;20207;-92
2022/09/14 07:14:41;;;;;;;14.57;9.67;;;16.30;99.90;;;;;;4977878;28;20289;-92
2022/09/14 07:17:13;;;;;;;14.57;9.30;;;16.20;99.90;;;;;;4978688;28;20210;-92
2022/09/14 07:19:44;;;;;;;14.73;9.00;;;16.20;99.90;;;;;;4978149;28;20237;-92
2022/09/14 07:22:19;;;;;;;20.17;10.40;;;16.10;99.90;;;;;;4978667;28;20222;-92
2022/09/14 07:24:51;;;;;;;15.80;10.10;;;16.00;99.90;;;;;;4979614;28;20198;-93
2022/09/14 07:27:23;;;;;;;19.27;10.30;;;16.00;99.90;;;;;;4986347;28;20290;-93
2022/09/14 07:29:54;;;;;;;13.17;8.73;;;16.00;99.90;;;;;;4995819;28;20183;-90
2022/09/14 07:32:26;;;;;;;14.10;9.80;;;16.10;99.90;;;;;;4983034;28;20201;-91
2022/09/14 07:34:56;;;;;;;14.33;9.90;;;16.00;99.90;;;;;;4969235;29;20203;-95
2022/09/14 07:37:31;;;;;;;16.83;10.13;;;16.10;99.90;;;;;;4976862;28;20248;-95
2022/09/14 07:40:02;;;;;;;15.50;9.10;;;16.10;99.90;;;;;;4977694;28;20265;-96
2022/09/14 07:42:36;;;;;;;19.00;10.67;;;16.20;99.90;;;;;;4969514;28;20204;-96
2022/09/14 07:45:20;;;;;;;17.20;9.60;;;16.20;99.90;;;;;;4998453;28;20230;-96
2022/09/14 07:47:51;;;;;;;14.30;9.40;;;16.30;99.90;;;;;;4998562;28;20237;-96
2022/09/14 07:50:23;;;;;;;14.10;8.80;;;16.30;99.90;;;;;;4999155;28;20711;-95
2022/09/14 07:52:59;;;;;;;17.50;8.80;;;16.30;99.90;;;;;;4981433;28;20314;-96
2022/09/14 07:55:34;;;;;;;14.40;7.77;;;16.40;99.90;;;;;;5007455;28;20199;-96
2022/09/14 07:58:06;;;;;;;12.60;8.87;;;16.40;99.90;;;;;;4999299;28;20531;-96
2022/09/14 08:00:38;;;;;;;13.33;8.70;;;16.40;99.90;;;;;;4982327;28;20203;-96
2022/09/14 08:03:10;;;;;;;18.33;8.63;;;16.40;99.90;;;;;;4981712;28;20217;-96
2022/09/14 08:05:42;;;;;;;16.57;8.93;;;16.50;99.90;;;;;;4984507;28;20230;-96
2022/09/14 08:08:17;;;;;;;14.27;8.80;;;16.40;99.90;;;;;;4985831;28;20227;-96
2022/09/14 08:10:49;;;;;;;17.33;8.70;;;16.40;99.90;;;;;;4984130;28;20218;-96
2022/09/14 08:13:22;;;;;;;13.37;8.87;;;16.40;99.90;;;;;;4999669;28;20214;-96
2022/09/14 08:15:56;;;;;;;15.37;8.50;;;16.40;99.90;;;;;;5000165;28;20210;-96
2022/09/14 08:18:27;;;;;;;17.13;8.83;;;16.40;99.90;;;;;;5000912;28;20234;-96
2022/09/14 08:21:04;;;;;;;13.83;8.53;;;16.50;99.90;;;;;;5002097;28;20194;-96
2022/09/14 08:23:39;;;;;;;14.33;8.13;;;16.50;99.90;;;;;;4992641;28;20213;-96
2022/09/14 08:26:12;;;;;;;15.67;8.57;;;16.50;99.90;;;;;;4982236;28;20237;-96
2022/09/14 08:28:44;;;;;;;15.07;8.87;;;16.50;99.90;;;;;;4983797;28;20691;-96
2022/09/14 08:31:17;;;;;;;14.30;8.40;;;16.50;99.90;;;;;;4983345;28;20207;-96
2022/09/14 08:33:50;;;;;;;15.83;8.57;;;16.50;99.90;;;;;;4987877;28;20283;-95
2022/09/14 08:36:23;;;;;;;13.50;8.63;;;16.50;99.90;;;;;;4987289;28;20215;-96
2022/09/14 08:38:57;;;;;;;14.40;8.70;;;16.50;99.90;;;;;;4987591;28;20197;-96
2022/09/14 08:41:34;;;;;;;18.33;8.37;;;16.50;99.90;;;;;;4989135;28;20206;-96
2022/09/14 08:44:14;;;;;;;14.13;8.07;;;16.50;99.90;;;;;;4998914;28;20199;-96
2022/09/14 08:46:49;;;;;;;14.87;9.23;;;16.40;99.90;;;;;;4999239;28;20195;-96
2022/09/14 08:49:29;;;;;;;16.07;8.40;;;16.40;99.90;;;;;;5000215;28;20240;-96
2022/09/14 08:52:00;;;;;;;19.83;8.47;;;16.40;99.90;;;;;;5018196;28;20277;-96
2022/09/14 08:54:36;;;;;;;13.73;8.70;;;16.40;99.90;;;;;;5019393;28;20190;-96
2022/09/14 08:57:14;;;;;;;14.73;8.13;;;16.40;99.90;;;;;;5019814;28;20265;-96
2022/09/14 08:59:52;;;;;;;14.57;8.83;;;16.50;99.90;;;;;;5019933;28;20194;-96
2022/09/14 09:02:41;;;;;;;14.77;8.87;;;16.50;99.90;;;;;;5014592;28;20206;-96
2022/09/14 09:05:29;;;;;;;13.43;8.53;;;16.40;99.90;;;;;;5000161;28;20279;-96
2022/09/14 09:08:08;;;;;;;15.63;9.07;;;16.40;99.90;;;;;;4983372;28;20197;-96
2022/09/14 09:10:42;;;;;;;14.10;8.10;;;16.40;99.90;;;;;;4988277;28;20203;-96
2022/09/14 09:13:17;;;;;;;16.27;8.57;;;16.40;99.90;;;;;;4998306;28;20200;-96
2022/09/14 09:15:50;;;;;;;14.03;8.73;;;16.40;99.90;;;;;;5007249;28;20228;-96
2022/09/14 09:18:28;;;;;;;14.10;8.70;;;16.40;99.90;;;;;;5015546;28;20230;-96
2022/09/14 09:21:06;;;;;;;14.23;8.40;;;16.30;99.90;;;;;;5003060;28;20749;-96
2022/09/14 09:26:24;;;;;;;17.33;9.50;;;16.30;99.90;;;;;;5047778;23;20240;-96
2022/09/14 09:28:59;;;;;;;13.90;8.33;;;16.40;99.90;;;;;;5021112;28;20237;-96
2022/09/14 09:31:35;;;;;;;13.83;8.70;;;16.30;99.90;;;;;;5012052;28;20209;-96
2022/09/14 09:34:07;;;;;;;13.33;8.97;;;16.30;99.90;;;;;;5020634;28;20221;-96
2022/09/14 09:36:42;;;;;;;15.20;9.03;;;16.30;99.90;;;;;;5020432;28;20217;-96
2022/09/14 09:39:15;;;;;;;16.20;9.27;;;16.40;99.90;;;;;;5019344;28;20617;-96
2022/09/14 09:41:52;;;;;;;15.77;8.87;;;16.30;99.90;;;;;;5019336;28;20210;-96
2022/09/14 09:44:24;;;;;;;17.70;8.40;;;16.40;99.90;;;;;;5020049;28;20292;-96
2022/09/14 09:46:56;;;;;;;14.57;8.90;;;16.40;99.90;;;;;;5019026;28;20201;-96
2022/09/14 09:49:33;;;;;;;13.87;9.10;;;16.40;99.90;;;;;;5021392;28;20299;-96
2022/09/14 09:52:11;;;;;;;14.77;9.10;;;16.40;99.90;;;;;;5019398;28;20288;-95
2022/09/14 09:54:45;;;;;;;19.60;8.97;;;16.30;99.90;;;;;;5020633;28;20210;-96
2022/09/14 09:57:28;;;;;;;13.50;8.53;;;16.30;99.90;;;;;;5002827;28;20213;-96
2022/09/14 10:00:23;;;;;;;16.13;8.83;;;16.40;99.90;;;;;;5003174;28;20585;-96
2022/09/14 10:02:55;;;;;;;17.43;9.60;;;16.30;99.90;;;;;;5000854;28;20210;-96
2022/09/14 10:05:30;;;;;;;16.53;9.57;;;16.40;99.90;;;;;;5004558;28;20647;-96
2022/09/14 10:08:02;;;;;;;18.37;9.10;;;16.30;99.90;;;;;;5008525;28;20204;-96
2022/09/14 10:10:45;;;;;;;12.80;8.80;;;16.30;99.90;;;;;;5018974;28;20507;-96
2022/09/14 10:13:28;;;;;;;15.30;8.87;;;16.30;99.90;;;;;;5020529;28;20569;-96
2022/09/14 10:16:09;;;;;;;15.00;8.40;;;16.20;99.90;;;;;;5022837;28;20225;-96
2022/09/14 10:18:45;;;;;;;20.47;9.70;;;16.30;99.90;;;;;;4999855;28;20225;-96
2022/09/14 10:21:19;;;;;;;16.10;9.10;;;16.30;99.90;;;;;;4982279;28;20217;-96
2022/09/14 10:24:05;;;;;;;17.70;8.63;;;16.30;99.90;;;;;;4997874;28;20216;-96
2022/09/14 10:26:38;;;;;;;15.03;8.57;;;16.40;99.90;;;;;;5010431;28;20217;-96
2022/09/14 10:29:34;;;;;;;14.83;8.93;;;16.40;99.90;;;;;;5003454;28;20321;-96
2022/09/14 10:32:17;;;;;;;15.27;9.13;;;16.50;99.90;;;;;;5000072;28;20677;-96
2022/09/14 10:34:49;;;;;;;14.30;8.73;;;16.40;99.90;;;;;;5002195;28;20206;-96
2022/09/14 10:37:34;;;;;;;14.73;8.60;;;16.30;99.90;;;;;;4999874;28;20216;-96
2022/09/14 10:40:15;;;;;;;11.93;8.40;;;16.30;99.90;;;;;;5002916;28;20269;-95
2022/09/14 10:42:58;;;;;;;14.73;8.63;;;16.30;99.90;;;;;;4984105;28;20218;-96
2022/09/14 10:45:38;;;;;;;12.00;8.20;;;16.30;99.90;;;;;;4999045;28;20218;-96
2022/09/14 10:48:24;;;;;;;13.70;8.20;;;16.30;99.90;;;;;;4998364;28;20210;-96
2022/09/14 10:51:06;;;;;;;14.00;8.63;;;16.30;99.90;;;;;;4997829;28;20241;-95
2022/09/14 10:53:50;;;;;;;12.63;8.00;;;16.30;99.90;;;;;;4998108;28;20202;-96
2022/09/14 10:56:25;;;;;;;12.50;8.57;;;16.30;99.90;;;;;;4998513;28;20226;-95
2022/09/14 10:59:12;;;;;;;15.07;7.87;;;16.30;99.90;;;;;;4999306;28;20220;-96
2022/09/14 11:02:23;;;;;;;12.47;7.93;;;16.30;99.90;;;;;;4998984;28;20216;-96
2022/09/14 11:05:11;;;;;;;13.80;8.30;;;16.30;99.90;;;;;;4967132;28;20643;-96
2022/09/14 11:07:53;;;;;;;12.63;8.07;;;16.30;99.90;;;;;;4979426;28;20245;-96
2022/09/14 11:10:33;;;;;;;13.73;7.87;;;16.30;99.90;;;;;;4979500;28;20242;-96
2022/09/14 11:13:34;;;;;;;10.93;7.90;;;16.30;99.90;;;;;;4979565;28;20207;-96
2022/09/14 11:16:19;;;;;;;14.90;7.87;;;16.30;99.90;;;;;;4979529;28;20289;-96
2022/09/14 11:19:01;;;;;;;14.97;7.67;;;16.30;99.90;;;;;;4979508;28;20214;-95
2022/09/14 11:21:44;;;;;;;16.00;8.50;;;16.30;99.90;;;;;;4992579;28;20667;-96
2022/09/14 11:24:20;;;;;;;10.30;7.83;;;16.30;99.90;;;;;;4998615;28;20220;-95
2022/09/14 11:27:01;;;;;;;16.50;8.60;;;16.30;99.90;;;;;;4999634;28;20206;-95
2022/09/14 11:29:36;;;;;;;11.63;8.07;;;16.30;99.90;;;;;;4998686;28;20238;-96
2022/09/14 11:32:14;;;;;;;13.97;7.90;;;16.30;99.90;;;;;;4998569;28;20697;-96
2022/09/14 11:34:58;;;;;;;10.73;7.53;;;16.30;99.90;;;;;;4984693;28;20210;-96
2022/09/14 11:37:37;;;;;;;11.93;7.80;;;16.30;99.90;;;;;;4981763;28;20206;-96
2022/09/14 11:40:19;;;;;;;15.73;8.37;;;16.30;99.90;;;;;;4983559;28;20236;-96
2022/09/14 11:42:58;;;;;;;18.07;8.50;;;16.30;99.90;;;;;;4982781;28;20254;-96
2022/09/14 11:45:35;;;;;;;15.23;8.13;;;16.30;99.90;;;;;;4985967;28;20206;-96
2022/09/14 11:48:14;;;;;;;12.20;7.80;;;16.30;99.90;;;;;;5018344;28;20206;-96
2022/09/14 11:51:14;;;;;;;13.00;7.63;;;16.30;99.90;;;;;;5006694;28;20694;-95
2022/09/14 11:53:47;;;;;;;11.90;7.90;;;16.20;99.90;;;;;;4986568;28;20207;-96
2022/09/14 11:56:25;;;;;;;13.27;7.77;;;16.30;99.90;;;;;;4988854;28;20218;-95
2022/09/14 11:59:00;;;;;;;13.77;7.97;;;16.30;99.90;;;;;;5006601;28;20237;-96
2022/09/14 12:01:36;;;;;;;14.13;7.70;;;16.30;99.90;;;;;;5004357;28;20201;-96
2022/09/14 12:04:15;;;;;;;12.83;8.30;;;16.30;99.90;;;;;;5111481;23;20240;-96
2022/09/14 12:06:58;;;;;;;13.93;8.03;;;16.30;99.90;;;;;;5019054;28;20217;-96
2022/09/14 12:09:54;;;;;;;17.77;8.13;;;16.30;99.90;;;;;;5036546;28;20253;-96
2022/09/14 12:12:40;;;;;;;17.97;8.50;;;16.30;99.90;;;;;;5033223;28;20194;-95
2022/09/14 12:15:32;;;;;;;15.40;8.73;;;16.20;99.90;;;;;;5032261;28;20211;-96
2022/09/14 12:18:25;;;;;;;15.33;8.37;;;16.20;99.90;;;;;;5012769;28;20242;-93
2022/09/14 12:21:06;;;;;;;16.77;8.23;;;16.20;99.90;;;;;;5004498;28;20187;-96
2022/09/14 12:23:58;;;;;;;15.57;9.00;;;16.20;99.90;;;;;;5009414;28;20199;-96
2022/09/14 12:26:33;;;;;;;16.47;8.17;;;16.30;99.90;;;;;;4990478;28;20225;-95
2022/09/14 12:29:25;;;;;;;15.10;8.43;;;16.30;99.90;;;;;;4992421;28;20218;-96
2022/09/14 12:32:21;;;;;;;13.33;8.53;;;16.20;99.90;;;;;;5004676;28;20221;-95
2022/09/14 12:35:44;;;;;;;13.77;8.10;;;16.20;99.90;;;;;;5002789;28;20221;-95
2022/09/14 12:38:41;;;;;;;12.37;8.77;;;16.20;99.90;;;;;;5004528;28;20206;-96
2022/09/14 12:41:49;;;;;;;13.97;8.77;;;16.10;99.90;;;;;;5004844;28;20233;-96
2022/09/14 12:44:38;;;;;;;15.37;7.73;;;16.00;99.90;;;;;;5004657;28;20206;-96
2022/09/14 12:47:50;;;;;;;14.00;8.53;;;16.00;99.90;;;;;;5005353;28;20222;-95
2022/09/14 12:50:23;;;;;;;13.37;7.90;;;15.90;99.90;;;;;;5009361;28;20233;-96
2022/09/14 12:53:15;;;;;;;15.77;8.63;;;15.90;99.90;;;;;;5019453;28;20186;-96
2022/09/14 12:55:55;;;;;;;11.27;7.87;;;15.80;99.90;;;;;;5005762;28;20199;-96
2022/09/14 12:58:47;;;;;;;18.50;8.50;;;15.80;99.90;;;;;;5019357;28;20210;-96
2022/09/14 13:01:30;;;;;;;15.13;8.73;;;15.70;99.90;;;;;;5008811;28;20254;-96
2022/09/14 13:04:05;;;;;;;15.47;8.47;;;15.60;99.90;;;;;;5017273;28;20222;-96
2022/09/14 13:06:43;;;;;;;15.33;8.63;;;15.60;99.90;;;;;;5009706;28;20282;-95
2022/09/14 13:09:20;;;;;;;21.87;8.70;;;15.50;99.90;;;;;;5007831;28;20221;-95
2022/09/14 13:11:57;;;;;;;15.07;8.90;;;15.50;99.90;;;;;;5004473;28;20233;-95
2022/09/14 13:14:32;;;;;;;13.83;8.77;;;15.40;99.90;;;;;;5010980;28;20217;-96
2022/09/14 13:17:11;;;;;;;13.33;8.40;;;15.40;99.90;;;;;;5003119;28;20234;-96
2022/09/14 13:19:44;;;;;;;11.60;7.80;;;15.30;99.90;;;;;;5001387;28;20574;-96
2022/09/14 13:22:21;;;;;;;13.97;8.73;;;15.30;99.90;;;;;;5001304;28;20219;-96
2022/09/14 13:25:02;;;;;;;16.53;8.67;;;15.20;99.90;;;;;;4984462;28;20223;-96
2022/09/14 13:27:36;;;;;;;14.40;8.73;;;15.20;99.90;;;;;;4983059;28;20207;-96
2022/09/14 13:30:19;;;;;;;15.40;8.80;;;15.20;99.90;;;;;;4984541;28;20198;-96
2022/09/14 13:32:57;;;;;;;12.27;7.87;;;15.20;99.90;;;;;;4988243;28;20272;-96
2022/09/14 13:35:35;;;;;;;15.60;8.73;;;15.20;99.90;;;;;;4998616;28;20702;-96